Time;durP1;ratioP1;P1;durP2;ratioP2;P2;SDS_P1;SDS_P2;PMS_P1;PMS_P2;Temp;Humidity;BMP_temperature;BMP_pressure;BME280_temperature;BME280_humidity;BME280_pressure;Samples;Min_cycle;Max_cycle;Signal;HPM_P1;HPM_P2
2022/09/17 00:00:41;;;;;;;;;;;16.80;79.80;;;;;;5134133;28;19994;-68
2022/09/17 00:03:08;;;;;;;;;;;16.80;79.80;;;;;;5115766;28;19904;-68
2022/09/17 00:05:36;;;;;;;;;;;16.80;79.70;;;;;;5134155;28;20354;-68
2022/09/17 00:08:02;;;;;;;;;;;16.80;79.70;;;;;;5134146;28;19928;-68
2022/09/17 00:10:28;;;;;;;;;;;16.70;80.30;;;;;;5134358;28;19903;-68
2022/09/17 00:12:54;;;;;;;;;;;16.70;79.60;;;;;;5133975;28;19911;-68
2022/09/17 00:15:19;;;;;;;;;;;16.70;79.50;;;;;;5134071;28;20421;-68
2022/09/17 00:17:45;;;;;;;;;;;16.70;79.50;;;;;;5123658;28;20274;-68
2022/09/17 00:20:10;;;;;;;;;;;16.70;79.40;;;;;;5113444;28;19908;-68
2022/09/17 00:22:37;;;;;;;;;;;16.60;79.20;;;;;;5113384;28;19943;-68
2022/09/17 00:25:03;;;;;;;;;;;16.60;79.10;;;;;;5113305;28;19903;-68
2022/09/17 00:27:29;;;;;;;;;;;16.60;79.20;;;;;;5113800;28;19935;-68
2022/09/17 00:29:54;;;;;;;;;;;16.50;79.20;;;;;;5117126;28;19958;-68
2022/09/17 00:32:20;;;;;;;;;;;16.60;79.40;;;;;;5116895;28;19969;-68
2022/09/17 00:34:47;;;;;;;;;;;16.60;79.40;;;;;;5132073;27;19930;-68
2022/09/17 00:37:13;;;;;;;;;;;16.50;79.20;;;;;;5117034;28;20354;-68
2022/09/17 00:39:39;;;;;;;;;;;16.50;79.00;;;;;;5116932;28;19960;-68
2022/09/17 00:42:09;;;;;;;;;;;16.50;79.10;;;;;;5116932;28;19939;-68
2022/09/17 00:44:35;;;;;;;;;;;16.50;79.20;;;;;;5116889;28;19910;-68
2022/09/17 00:47:00;;;;;;;;;;;16.50;79.40;;;;;;5116594;28;19908;-67
2022/09/17 00:49:27;;;;;;;;;;;16.50;79.40;;;;;;5116758;28;19903;-68
2022/09/17 00:52:00;;;;;;;;;;;16.50;79.60;;;;;;5116645;28;20282;-68
2022/09/17 00:54:25;;;;;;;;;;;16.50;79.40;;;;;;5116743;28;19904;-68
2022/09/17 00:56:55;;;;;;;;;;;16.50;79.30;;;;;;5116641;28;19904;-68
2022/09/17 00:59:21;;;;;;;;;;;16.50;79.20;;;;;;5116602;28;19904;-68
2022/09/17 01:01:47;;;;;;;;;;;16.50;79.20;;;;;;5116584;28;19904;-68
2022/09/17 01:04:16;;;;;;;;;;;16.50;79.20;;;;;;5116271;27;19903;-68
2022/09/17 01:06:49;;;;;;;;;;;16.40;79.10;;;;;;5134182;27;19910;-68
2022/09/17 01:09:30;;;;;;;;;;;16.40;79.00;;;;;;5118546;27;19910;-68
2022/09/17 01:12:14;;;;;;;;;;;16.40;78.80;;;;;;5136811;27;20270;-68
2022/09/17 01:14:42;;;;;;;;;;;16.30;78.70;;;;;;5136798;27;19903;-68
2022/09/17 01:17:28;;;;;;;;;;;16.30;78.70;;;;;;5125021;27;19908;-68
2022/09/17 01:20:00;;;;;;;;;;;16.30;78.80;;;;;;5123702;27;20006;-68
2022/09/17 01:22:41;;;;;;;;;;;16.20;78.80;;;;;;5105045;27;20290;-68
2022/09/17 01:25:27;;;;;;;;;;;16.20;78.70;;;;;;5124655;27;19903;-68
2022/09/17 01:28:01;;;;;;;;;;;16.10;78.60;;;;;;5125570;27;20358;-68
2022/09/17 01:30:46;;;;;;;;;;;16.10;78.60;;;;;;5124738;27;20274;-68
2022/09/17 01:33:17;;;;;;;;;;;16.10;78.80;;;;;;5125065;27;19915;-68
2022/09/17 01:35:57;;;;;;;;;;;16.00;78.90;;;;;;5124025;27;19911;-68
2022/09/17 01:38:22;;;;;;;;;;;16.00;79.00;;;;;;5123746;27;19939;-68
2022/09/17 01:41:06;;;;;;;;;;;16.00;79.20;;;;;;5124687;27;19977;-68
2022/09/17 01:43:50;;;;;;;;;;;16.00;79.40;;;;;;5107378;27;19907;-68
2022/09/17 01:46:23;;;;;;;;;;;16.00;79.50;;;;;;5107258;27;19916;-68
2022/09/17 01:48:50;;;;;;;;;;;16.10;79.60;;;;;;5105798;27;19972;-68
2022/09/17 01:51:19;;;;;;;;;;;16.10;79.60;;;;;;5125534;27;19915;-68
2022/09/17 01:53:48;;;;;;;;;;;16.10;79.70;;;;;;5123953;27;20359;-68
2022/09/17 01:56:16;;;;;;;;;;;16.00;79.60;;;;;;5105368;27;20389;-68
2022/09/17 01:58:44;;;;;;;;;;;16.10;79.70;;;;;;5123477;27;19954;-68
2022/09/17 02:01:11;;;;;;;;;;;16.10;79.50;;;;;;5123889;27;19960;-68
2022/09/17 02:03:48;;;;;;;;;;;16.10;79.60;;;;;;5123116;27;19925;-68
2022/09/17 02:06:16;;;;;;;;;;;16.10;79.60;;;;;;5123450;27;19903;-68
2022/09/17 02:08:46;;;;;;;;;;;16.20;79.70;;;;;;5123347;27;19910;-68
2022/09/17 02:11:14;;;;;;;;;;;16.20;79.70;;;;;;5123637;27;19953;-68
2022/09/17 02:13:42;;;;;;;;;;;16.20;79.60;;;;;;5124936;27;20471;-67
2022/09/17 02:16:37;;;;;;;;;;;16.20;79.60;;;;;;5123891;27;19950;-67
2022/09/17 02:19:11;;;;;;;;;;;16.20;79.50;;;;;;5021634;28;19917;-68
2022/09/17 02:21:45;;;;;;;;;;;16.20;79.30;;;;;;5008091;28;19991;-68
2022/09/17 02:24:19;;;;;;;;;;;16.20;79.20;;;;;;5021370;28;19905;-68
2022/09/17 02:26:47;;;;;;;;;;;16.20;79.20;;;;;;5019268;28;19912;-68
2022/09/17 02:29:18;;;;;;;;;;;16.10;79.00;;;;;;5021504;28;19924;-68
2022/09/17 02:31:43;;;;;;;;;;;16.10;78.90;;;;;;5019252;28;19921;-68
2022/09/17 02:34:10;;;;;;;;;;;16.10;78.80;;;;;;5026839;28;19924;-68
2022/09/17 02:36:35;;;;;;;;;;;16.00;78.50;;;;;;5032027;28;19932;-67
2022/09/17 02:39:02;;;;;;;;;;;16.10;78.40;;;;;;5032061;28;19998;-68
2022/09/17 02:41:35;;;;;;;;;;;16.00;78.40;;;;;;5031895;28;19905;-67
2022/09/17 02:44:06;;;;;;;;;;;16.00;78.50;;;;;;5031956;28;19999;-68
2022/09/17 02:46:33;;;;;;;;;;;16.00;78.60;;;;;;5031919;28;19955;-68
2022/09/17 02:49:13;;;;;;;;;;;16.10;78.80;;;;;;5028979;28;19951;-68
2022/09/17 02:51:54;;;;;;;;;;;16.10;78.90;;;;;;5011455;28;20412;-68
2022/09/17 02:54:33;;;;;;;;;;;16.00;78.50;;;;;;5033391;28;19917;-68
2022/09/17 02:57:02;;;;;;;;;;;16.00;78.60;;;;;;5114313;28;19903;-68
2022/09/17 02:59:36;;;;;;;;;;;16.10;78.90;;;;;;5114306;28;19908;-69
2022/09/17 03:02:06;;;;;;;;;;;16.00;78.40;;;;;;5114542;28;19910;-68
2022/09/17 03:04:32;;;;;;;;;;;16.00;78.40;;;;;;5117384;27;20286;-68
2022/09/17 03:06:59;;;;;;;;;;;16.00;78.30;;;;;;5114177;28;19965;-68
2022/09/17 03:09:25;;;;;;;;;;;16.00;78.40;;;;;;5114118;28;19914;-68
2022/09/17 03:11:50;;;;;;;;;;;16.00;78.40;;;;;;5114097;28;20006;-68
2022/09/17 03:14:19;;;;;;;;;;;16.00;78.40;;;;;;5114177;28;19911;-68
2022/09/17 03:16:45;;;;;;;;;;;16.00;78.40;;;;;;5114122;28;20362;-68
2022/09/17 03:19:11;;;;;;;;;;;16.00;78.30;;;;;;5113712;27;19914;-68
2022/09/17 03:21:36;;;;;;;;;;;16.00;78.50;;;;;;5114050;28;19904;-68
2022/09/17 03:24:02;;;;;;;;;;;16.00;78.40;;;;;;5113932;28;19994;-68
2022/09/17 03:26:28;;;;;;;;;;;16.00;78.50;;;;;;5113991;28;19911;-67
2022/09/17 03:28:53;;;;;;;;;;;16.00;78.40;;;;;;5113952;28;19904;-68
2022/09/17 03:31:19;;;;;;;;;;;16.00;78.40;;;;;;5113914;28;19908;-68
2022/09/17 03:33:45;;;;;;;;;;;16.00;78.40;;;;;;5113479;28;19962;-68
2022/09/17 03:36:10;;;;;;;;;;;16.00;78.50;;;;;;5113886;28;20367;-68
2022/09/17 03:38:37;;;;;;;;;;;16.00;78.40;;;;;;5113830;28;19904;-68
2022/09/17 03:41:05;;;;;;;;;;;16.00;78.40;;;;;;5113872;28;20389;-68
2022/09/17 03:43:31;;;;;;;;;;;16.00;78.40;;;;;;5113740;28;20295;-68
2022/09/17 03:45:57;;;;;;;;;;;15.90;78.30;;;;;;5113827;28;19911;-68
2022/09/17 03:48:22;;;;;;;;;;;15.90;78.30;;;;;;5113781;28;19904;-68
2022/09/17 03:50:48;;;;;;;;;;;15.90;79.10;;;;;;5124561;28;19911;-68
2022/09/17 03:53:14;;;;;;;;;;;15.90;78.30;;;;;;5134168;28;20284;-68
2022/09/17 03:55:40;;;;;;;;;;;15.90;78.20;;;;;;5134236;28;20258;-68
2022/09/17 03:58:06;;;;;;;;;;;15.90;78.30;;;;;;5134457;28;19946;-68
2022/09/17 04:00:32;;;;;;;;;;;15.90;78.40;;;;;;5134173;28;19908;-69
2022/09/17 04:02:58;;;;;;;;;;;16.00;78.70;;;;;;5137150;27;19953;-68
2022/09/17 04:05:23;;;;;;;;;;;16.00;78.70;;;;;;5137374;27;19946;-68
2022/09/17 04:07:49;;;;;;;;;;;16.00;78.70;;;;;;5138179;27;19911;-68
2022/09/17 04:10:15;;;;;;;;;;;16.00;78.70;;;;;;5138122;27;19903;-68
2022/09/17 04:12:41;;;;;;;;;;;16.00;78.70;;;;;;5137995;27;19914;-68
2022/09/17 04:15:07;;;;;;;;;;;16.10;78.90;;;;;;5138017;27;19903;-68
2022/09/17 04:17:32;;;;;;;;;;;16.10;78.90;;;;;;5134166;27;19911;-68
2022/09/17 04:19:58;;;;;;;;;;;16.10;78.90;;;;;;5117217;27;19911;-68
2022/09/17 04:22:24;;;;;;;;;;;16.10;78.70;;;;;;5117327;28;19938;-68
2022/09/17 04:24:49;;;;;;;;;;;16.10;78.70;;;;;;5117274;28;19904;-68
2022/09/17 04:27:15;;;;;;;;;;;16.10;78.60;;;;;;5117125;28;19907;-68
2022/09/17 04:29:41;;;;;;;;;;;16.10;79.20;;;;;;5117179;28;19904;-68
2022/09/17 04:32:06;;;;;;;;;;;16.10;78.50;;;;;;5098604;28;19938;-68
2022/09/17 04:34:32;;;;;;;;;;;16.10;78.40;;;;;;5117078;28;19907;-68
2022/09/17 04:36:57;;;;;;;;;;;16.00;78.20;;;;;;5116769;28;19910;-68
2022/09/17 04:39:23;;;;;;;;;;;16.00;78.20;;;;;;5116948;28;19911;-68
2022/09/17 04:41:49;;;;;;;;;;;16.00;78.00;;;;;;5126632;27;20362;-69
2022/09/17 04:44:14;;;;;;;;;;;16.00;78.00;;;;;;5137415;27;20278;-68
2022/09/17 04:46:40;;;;;;;;;;;15.90;77.80;;;;;;5137416;27;19986;-68
2022/09/17 04:49:06;;;;;;;;;;;15.90;77.80;;;;;;5135154;27;19907;-68
2022/09/17 04:51:32;;;;;;;;;;;15.90;77.90;;;;;;5098464;27;20018;-68
2022/09/17 04:53:57;;;;;;;;;;;15.90;78.10;;;;;;5116551;28;19990;-68
2022/09/17 04:56:23;;;;;;;;;;;15.80;78.20;;;;;;5116683;28;19903;-68
2022/09/17 04:58:48;;;;;;;;;;;15.80;78.30;;;;;;5116612;28;19908;-68
2022/09/17 05:01:17;;;;;;;;;;;15.80;78.40;;;;;;5116594;28;19903;-68
2022/09/17 05:03:43;;;;;;;;;;;15.80;78.30;;;;;;5126522;27;20403;-68
2022/09/17 05:06:09;;;;;;;;;;;15.80;78.10;;;;;;5137079;27;19907;-68
2022/09/17 05:08:34;;;;;;;;;;;15.80;77.90;;;;;;5137004;27;19903;-69
2022/09/17 05:11:00;;;;;;;;;;;15.70;77.80;;;;;;5122787;27;19908;-68
2022/09/17 05:13:26;;;;;;;;;;;15.70;77.80;;;;;;5097304;28;20312;-68
2022/09/17 05:15:53;;;;;;;;;;;15.70;77.50;;;;;;5116199;28;19903;-69
2022/09/17 05:18:18;;;;;;;;;;;15.60;77.20;;;;;;5116194;28;19957;-68
2022/09/17 05:20:44;;;;;;;;;;;15.60;77.00;;;;;;5116072;28;19989;-68
2022/09/17 05:23:10;;;;;;;;;;;15.60;76.90;;;;;;5116210;28;19904;-69
2022/09/17 05:25:35;;;;;;;;;;;15.60;76.80;;;;;;5115924;28;20018;-69
2022/09/17 05:28:01;;;;;;;;;;;15.50;76.50;;;;;;5116041;28;19929;-68
2022/09/17 05:30:26;;;;;;;;;;;15.40;76.40;;;;;;5118693;27;19907;-69
2022/09/17 05:32:59;;;;;;;;;;;15.40;76.30;;;;;;5125102;27;20354;-69
2022/09/17 05:35:25;;;;;;;;;;;15.40;76.50;;;;;;5105473;27;19907;-69
2022/09/17 05:37:50;;;;;;;;;;;15.40;76.70;;;;;;5126270;27;20398;-69
2022/09/17 05:40:16;;;;;;;;;;;15.40;76.60;;;;;;5128801;27;20283;-69
2022/09/17 05:42:41;;;;;;;;;;;15.40;76.80;;;;;;5136283;27;19903;-69
2022/09/17 05:45:07;;;;;;;;;;;15.30;76.80;;;;;;5136228;27;19910;-70
2022/09/17 05:47:34;;;;;;;;;;;15.30;76.70;;;;;;5136252;27;19911;-69
2022/09/17 05:49:59;;;;;;;;;;;15.30;76.80;;;;;;5127656;27;19911;-70
2022/09/17 05:52:26;;;;;;;;;;;15.30;76.50;;;;;;5115416;28;19918;-70
2022/09/17 05:54:52;;;;;;;;;;;15.30;76.30;;;;;;5115495;28;20315;-69
2022/09/17 05:57:19;;;;;;;;;;;15.30;76.10;;;;;;5115453;28;19950;-70
2022/09/17 05:59:44;;;;;;;;;;;15.30;76.00;;;;;;5115431;28;19904;-70
2022/09/17 06:02:13;;;;;;;;;;;15.30;76.00;;;;;;5115362;28;20375;-70
2022/09/17 06:04:38;;;;;;;;;;;15.30;76.10;;;;;;5133354;27;20502;-70
2022/09/17 06:07:06;;;;;;;;;;;15.30;76.10;;;;;;5117430;27;19903;-70
2022/09/17 06:09:33;;;;;;;;;;;15.30;76.30;;;;;;5135791;27;19995;-70
2022/09/17 06:11:59;;;;;;;;;;;15.30;76.20;;;;;;5135592;27;19994;-70
2022/09/17 06:14:24;;;;;;;;;;;15.30;76.20;;;;;;5116203;27;20006;-70
2022/09/17 06:16:50;;;;;;;;;;;15.30;76.00;;;;;;5096674;28;19903;-70
2022/09/17 06:19:15;;;;;;;;;;;15.30;75.80;;;;;;5096554;28;19926;-70
2022/09/17 06:21:41;;;;;;;;;;;15.40;75.90;;;;;;5096788;28;19917;-70
2022/09/17 06:24:08;;;;;;;;;;;15.30;76.30;;;;;;5115033;28;19904;-70
2022/09/17 06:26:34;;;;;;;;;;;15.40;75.50;;;;;;5113995;28;19949;-71
2022/09/17 06:28:59;;;;;;;;;;;15.40;75.20;;;;;;5115643;28;19915;-71
2022/09/17 06:31:25;;;;;;;;;;;15.30;75.00;;;;;;5135196;27;20297;-70
2022/09/17 06:33:50;;;;;;;;;;;15.30;74.80;;;;;;5133095;27;19916;-70
2022/09/17 06:36:16;;;;;;;;;;;15.30;74.90;;;;;;5116623;27;19903;-71
2022/09/17 06:38:42;;;;;;;;;;;15.30;74.70;;;;;;5116643;27;20425;-70
2022/09/17 06:41:08;;;;;;;;;;;15.40;75.10;;;;;;5134927;27;19903;-70
2022/09/17 06:43:33;;;;;;;;;;;15.40;75.30;;;;;;5134919;27;20297;-70
2022/09/17 06:46:00;;;;;;;;;;;15.50;75.60;;;;;;5134881;27;20377;-70
2022/09/17 06:48:26;;;;;;;;;;;15.50;75.60;;;;;;5134792;27;19932;-70
2022/09/17 06:50:53;;;;;;;;;;;15.60;75.70;;;;;;5118734;27;19949;-70
2022/09/17 06:53:19;;;;;;;;;;;15.60;75.70;;;;;;5114098;28;19930;-70
2022/09/17 06:55:44;;;;;;;;;;;15.70;75.90;;;;;;5114145;28;19904;-70
2022/09/17 06:58:10;;;;;;;;;;;15.80;75.70;;;;;;5121913;27;19914;-71
2022/09/17 07:00:36;;;;;;;;;;;15.80;75.70;;;;;;5134603;27;19903;-70
2022/09/17 07:03:01;;;;;;;;;;;15.80;75.00;;;;;;5134312;27;19948;-70
2022/09/17 07:05:28;;;;;;;;;;;15.90;74.70;;;;;;5134428;27;19903;-70
2022/09/17 07:07:54;;;;;;;;;;;15.90;74.80;;;;;;5134398;27;19903;-71
2022/09/17 07:10:20;;;;;;;;;;;15.90;74.70;;;;;;5132666;27;20002;-71
2022/09/17 07:12:45;;;;;;;;;;;16.00;74.60;;;;;;5134303;27;19908;-71
2022/09/17 07:15:11;;;;;;;;;;;16.00;74.90;;;;;;5114852;27;19953;-71
2022/09/17 07:17:39;;;;;;;;;;;16.10;75.20;;;;;;5113716;28;20002;-70
2022/09/17 07:20:05;;;;;;;;;;;16.10;74.80;;;;;;5113715;27;19961;-70
2022/09/17 07:22:30;;;;;;;;;;;16.20;74.70;;;;;;5113762;28;19908;-70
2022/09/17 07:24:56;;;;;;;;;;;16.30;74.80;;;;;;5113773;28;20004;-70
2022/09/17 07:27:22;;;;;;;;;;;16.30;74.60;;;;;;5113706;28;20258;-71
2022/09/17 07:29:47;;;;;;;;;;;16.40;74.80;;;;;;5113697;28;19904;-70
2022/09/17 07:32:13;;;;;;;;;;;16.40;74.30;;;;;;5130437;27;19964;-71
2022/09/17 07:34:39;;;;;;;;;;;16.50;74.20;;;;;;5115589;28;19908;-70
2022/09/17 07:37:04;;;;;;;;;;;16.50;74.30;;;;;;5137246;27;19952;-70
2022/09/17 07:39:30;;;;;;;;;;;16.60;74.50;;;;;;5141041;27;20418;-71
2022/09/17 07:41:56;;;;;;;;;;;16.60;74.80;;;;;;5122625;27;19910;-71
2022/09/17 07:44:21;;;;;;;;;;;16.70;74.60;;;;;;5122521;27;20280;-71
2022/09/17 07:46:47;;;;;;;;;;;16.70;74.40;;;;;;5140901;27;19990;-71
2022/09/17 07:49:12;;;;;;;;;;;16.80;74.20;;;;;;5137730;27;20366;-70
2022/09/17 07:51:38;;;;;;;;;;;16.80;73.90;;;;;;5120308;27;19925;-70
2022/09/17 07:54:05;;;;;;;;;;;16.80;73.80;;;;;;5120432;27;19911;-71
2022/09/17 07:56:31;;;;;;;;;;;16.80;74.00;;;;;;5120183;27;19915;-71
2022/09/17 07:58:56;;;;;;;;;;;16.90;74.00;;;;;;5120159;27;19908;-70
2022/09/17 08:01:22;;;;;;;;;;;16.90;74.00;;;;;;5120170;27;19926;-71
2022/09/17 08:03:52;;;;;;;;;;;16.90;74.10;;;;;;5120096;27;20333;-70
2022/09/17 08:06:19;;;;;;;;;;;17.00;74.40;;;;;;5120030;27;19954;-71
2022/09/17 08:08:45;;;;;;;;;;;17.00;74.00;;;;;;5120799;27;19953;-70
2022/09/17 08:11:12;;;;;;;;;;;17.10;74.10;;;;;;5132620;27;19907;-71
2022/09/17 08:13:39;;;;;;;;;;;17.10;74.00;;;;;;5122388;27;19911;-71
2022/09/17 08:16:06;;;;;;;;;;;17.10;73.60;;;;;;5120060;27;20379;-71
2022/09/17 08:18:32;;;;;;;;;;;17.20;74.10;;;;;;5123013;27;20362;-71
2022/09/17 08:20:58;;;;;;;;;;;17.20;73.80;;;;;;5119655;27;19915;-71
2022/09/17 08:23:24;;;;;;;;;;;17.30;74.00;;;;;;5134084;27;19912;-71
2022/09/17 08:25:53;;;;;;;;;;;17.30;73.70;;;;;;5140147;27;19913;-71
2022/09/17 08:28:24;;;;;;;;;;;17.40;73.20;;;;;;5137428;27;19911;-71
2022/09/17 08:30:50;;;;;;;;;;;17.30;72.40;;;;;;5101486;28;19912;-71
2022/09/17 08:33:16;;;;;;;;;;;17.40;72.70;;;;;;5119582;27;19922;-71
2022/09/17 08:35:51;;;;;;;;;;;17.30;72.50;;;;;;5119927;27;19961;-71
2022/09/17 08:38:17;;;;;;;;;;;17.30;72.60;;;;;;5119925;27;20554;-72
2022/09/17 08:40:50;;;;;;;;;;;17.40;72.00;;;;;;5119888;27;20002;-72
2022/09/17 08:43:18;;;;;;;;;;;17.40;71.80;;;;;;5119869;27;19960;-71
2022/09/17 08:45:44;;;;;;;;;;;17.40;71.00;;;;;;5120063;27;20308;-72
2022/09/17 08:48:12;;;;;;;;;;;17.40;71.30;;;;;;5121450;27;19923;-72
2022/09/17 08:50:40;;;;;;;;;;;17.40;72.10;;;;;;5124083;27;19954;-72
2022/09/17 08:53:30;;;;;;;;;;;17.40;71.20;;;;;;5116482;28;19911;-72
2022/09/17 08:56:15;;;;;;;;;;;17.40;71.60;;;;;;5120326;27;19949;-72
2022/09/17 08:58:59;;;;;;;;;;;17.40;71.30;;;;;;5117073;27;19911;-71
2022/09/17 09:01:30;;;;;;;;;;;17.40;71.10;;;;;;5116372;27;20365;-72
2022/09/17 09:04:12;;;;;;;;;;;17.40;71.00;;;;;;5116285;28;19908;-72
2022/09/17 09:06:46;;;;;;;;;;;17.40;71.40;;;;;;5116293;27;19907;-72
2022/09/17 09:09:14;;;;;;;;;;;17.40;71.90;;;;;;5128702;27;20377;-72
2022/09/17 09:11:41;;;;;;;;;;;17.50;71.60;;;;;;5122920;27;19907;-71
2022/09/17 09:14:31;;;;;;;;;;;17.60;71.60;;;;;;5124146;27;19956;-72
2022/09/17 09:16:58;;;;;;;;;;;17.60;70.70;;;;;;5125272;27;20019;-71
2022/09/17 09:19:29;;;;;;;;;;;17.70;70.50;;;;;;5124668;27;19908;-72
2022/09/17 09:22:02;;;;;;;;;;;17.70;70.00;;;;;;5125531;27;20263;-73
2022/09/17 09:24:48;;;;;;;;;;;17.80;70.40;;;;;;5115594;28;19914;-72
2022/09/17 09:27:27;;;;;;;;;;;17.80;70.70;;;;;;5075466;27;20354;-72
2022/09/17 09:30:10;;;;;;;;;;;17.80;69.60;;;;;;5120205;27;19938;-72
2022/09/17 09:32:42;;;;;;;;;;;17.80;69.50;;;;;;5127734;27;19915;-72
2022/09/17 09:35:15;;;;;;;;;;;17.90;70.20;;;;;;5135152;27;19907;-72
2022/09/17 09:37:42;;;;;;;;;;;17.90;70.40;;;;;;5128861;27;20278;-72
2022/09/17 09:40:28;;;;;;;;;;;18.00;70.50;;;;;;5097498;28;19907;-71
2022/09/17 09:42:56;;;;;;;;;;;18.10;70.50;;;;;;5114850;28;19983;-72
2022/09/17 09:45:42;;;;;;;;;;;18.20;70.90;;;;;;5119112;27;19918;-72
2022/09/17 09:48:17;;;;;;;;;;;18.30;70.30;;;;;;5113029;27;20350;-71
2022/09/17 09:50:42;;;;;;;;;;;18.40;70.20;;;;;;5120317;27;20290;-72
2022/09/17 09:53:17;;;;;;;;;;;18.50;69.90;;;;;;5117037;27;19926;-71
2022/09/17 09:56:02;;;;;;;;;;;18.60;70.10;;;;;;5123346;27;20409;-72
2022/09/17 09:58:28;;;;;;;;;;;18.60;69.30;;;;;;5125113;27;19908;-72
2022/09/17 10:00:53;;;;;;;;;;;18.70;69.10;;;;;;5122976;27;19910;-72
2022/09/17 10:03:20;;;;;;;;;;;18.70;68.30;;;;;;5124580;27;19912;-72
2022/09/17 10:05:59;;;;;;;;;;;18.70;68.60;;;;;;5122241;27;19954;-72
2022/09/17 10:08:26;;;;;;;;;;;18.70;68.00;;;;;;5104364;27;19916;-72
2022/09/17 10:10:53;;;;;;;;;;;18.70;68.50;;;;;;5096970;27;20389;-72
2022/09/17 10:13:19;;;;;;;;;;;18.80;67.70;;;;;;5125213;27;20027;-72
2022/09/17 10:15:45;;;;;;;;;;;18.80;67.80;;;;;;5120270;27;19914;-71
2022/09/17 10:18:15;;;;;;;;;;;18.90;68.00;;;;;;5109431;27;19997;-72
2022/09/17 10:20:58;;;;;;;;;;;19.00;68.00;;;;;;5113400;27;20259;-72
2022/09/17 10:23:25;;;;;;;;;;;19.00;68.10;;;;;;5126423;27;19907;-72
2022/09/17 10:25:51;;;;;;;;;;;19.10;67.60;;;;;;5115635;27;19908;-72
2022/09/17 10:28:26;;;;;;;;;;;19.00;67.40;;;;;;5120363;27;19930;-72
2022/09/17 10:31:10;;;;;;;;;;;19.00;67.10;;;;;;5132596;27;19946;-72
2022/09/17 10:33:49;;;;;;;;;;;18.90;65.90;;;;;;5091948;28;19916;-72
2022/09/17 10:36:15;;;;;;;;;;;18.80;66.00;;;;;;5096580;28;19908;-72
2022/09/17 10:38:41;;;;;;;;;;;18.70;66.20;;;;;;5093516;28;19915;-72
2022/09/17 10:41:18;;;;;;;;;;;18.60;66.50;;;;;;5098880;28;19908;-72
2022/09/17 10:43:44;;;;;;;;;;;18.60;66.60;;;;;;5104267;28;19915;-72
2022/09/17 10:46:12;;;;;;;;;;;18.50;66.40;;;;;;5097095;28;19999;-72
2022/09/17 10:48:50;;;;;;;;;;;18.50;66.20;;;;;;5093735;28;19908;-72
2022/09/17 10:51:21;;;;;;;;;;;18.50;66.00;;;;;;5099168;28;20355;-72
2022/09/17 10:53:58;;;;;;;;;;;18.60;66.00;;;;;;5095445;28;19911;-72
2022/09/17 10:56:30;;;;;;;;;;;18.70;66.30;;;;;;5092145;28;19937;-72
2022/09/17 10:59:16;;;;;;;;;;;18.80;67.20;;;;;;5096603;28;19904;-72
2022/09/17 11:01:45;;;;;;;;;;;18.90;66.90;;;;;;5098690;28;19903;-72
2022/09/17 11:04:29;;;;;;;;;;;18.90;66.00;;;;;;5099116;28;19914;-72
2022/09/17 11:07:14;;;;;;;;;;;19.00;66.50;;;;;;5110778;28;19914;-72
2022/09/17 11:09:55;;;;;;;;;;;19.00;65.30;;;;;;5101155;28;20333;-72
2022/09/17 11:12:40;;;;;;;;;;;18.80;64.30;;;;;;5110036;28;19998;-72
2022/09/17 11:15:24;;;;;;;;;;;18.70;63.50;;;;;;5113549;28;19911;-72
2022/09/17 11:18:22;;;;;;;;;;;18.50;63.90;;;;;;5101665;28;19960;-72
2022/09/17 11:21:04;;;;;;;;;;;18.40;63.50;;;;;;5011745;28;19992;-72
2022/09/17 11:23:48;;;;;;;;;;;18.30;61.80;;;;;;5030700;28;19940;-72
2022/09/17 11:26:34;;;;;;;;;;;18.30;63.60;;;;;;5030918;28;19905;-71
2022/09/17 11:29:08;;;;;;;;;;;18.40;63.80;;;;;;5030147;28;19939;-72
2022/09/17 11:31:39;;;;;;;;;;;18.60;64.50;;;;;;5013679;28;20319;-72
2022/09/17 11:34:23;;;;;;;;;;;18.80;65.40;;;;;;5030484;28;20471;-72
2022/09/17 11:36:58;;;;;;;;;;;19.10;65.70;;;;;;5030520;28;19909;-72
2022/09/17 11:39:30;;;;;;;;;;;19.20;64.20;;;;;;5030652;28;19905;-72
2022/09/17 11:41:57;;;;;;;;;;;19.30;63.50;;;;;;5030076;28;19912;-72
2022/09/17 11:44:26;;;;;;;;;;;19.40;64.60;;;;;;4994698;28;19956;-72
2022/09/17 11:46:55;;;;;;;;;;;19.50;63.60;;;;;;5025153;28;20291;-72
2022/09/17 11:49:36;;;;;;;;;;;19.50;63.10;;;;;;5030427;28;19905;-72
2022/09/17 11:52:15;;;;;;;;;;;19.60;64.00;;;;;;5002982;28;19905;-72
2022/09/17 11:54:50;;;;;;;;;;;19.70;63.50;;;;;;5010785;28;19909;-72
2022/09/17 11:57:18;;;;;;;;;;;19.70;63.60;;;;;;5080809;28;19984;-72
2022/09/17 11:59:45;;;;;;;;;;;19.70;63.00;;;;;;5097984;28;20251;-72
2022/09/17 12:02:19;;;;;;;;;;;19.70;62.80;;;;;;5111693;28;20326;-72
2022/09/17 12:04:53;;;;;;;;;;;19.60;61.90;;;;;;5111795;28;19903;-72
2022/09/17 12:07:38;;;;;;;;;;;19.40;61.00;;;;;;5100700;28;20021;-72
2022/09/17 12:10:22;;;;;;;;;;;19.30;60.40;;;;;;5092529;28;19953;-72
2022/09/17 12:13:06;;;;;;;;;;;19.10;61.10;;;;;;5105600;28;19912;-72
2022/09/17 12:15:34;;;;;;;;;;;19.00;61.40;;;;;;5091424;28;19956;-72
2022/09/17 12:18:15;;;;;;;;;;;18.90;62.50;;;;;;5092603;28;20283;-72
2022/09/17 12:20:44;;;;;;;;;;;18.80;61.40;;;;;;5092475;28;19958;-72
2022/09/17 12:23:12;;;;;;;;;;;18.90;61.60;;;;;;5111207;28;19907;-72
2022/09/17 12:25:50;;;;;;;;;;;19.00;61.70;;;;;;5115956;28;19915;-72
2022/09/17 12:28:30;;;;;;;;;;;19.00;61.20;;;;;;5116792;28;19903;-72
2022/09/17 12:31:01;;;;;;;;;;;19.00;61.00;;;;;;5116391;27;19948;-72
2022/09/17 12:33:32;;;;;;;;;;;19.00;60.80;;;;;;5122196;27;19966;-72
2022/09/17 12:35:58;;;;;;;;;;;19.10;60.90;;;;;;5118780;27;20271;-72
2022/09/17 12:38:34;;;;;;;;;;;19.10;60.70;;;;;;5137112;27;19910;-72
2022/09/17 12:41:02;;;;;;;;;;;19.20;61.10;;;;;;5116306;27;20400;-72
2022/09/17 12:43:28;;;;;;;;;;;19.30;61.60;;;;;;5101125;28;20489;-72
2022/09/17 12:45:56;;;;;;;;;;;19.30;61.50;;;;;;5116416;28;20013;-72
2022/09/17 12:48:40;;;;;;;;;;;19.40;61.60;;;;;;5118446;27;20004;-72
2022/09/17 12:51:14;;;;;;;;;;;19.50;62.20;;;;;;5127644;27;19918;-72
2022/09/17 12:53:39;;;;;;;;;;;19.70;62.80;;;;;;5118334;27;20267;-72
2022/09/17 12:56:14;;;;;;;;;;;19.80;60.10;;;;;;5137041;27;19911;-72
2022/09/17 12:58:47;;;;;;;;;;;19.80;59.10;;;;;;5136869;27;19995;-72
2022/09/17 13:01:31;;;;;;;;;;;19.80;59.50;;;;;;5135794;27;20318;-72
2022/09/17 13:04:06;;;;;;;;;;;19.80;59.80;;;;;;5134171;27;19907;-72
2022/09/17 13:06:32;;;;;;;;;;;19.70;60.60;;;;;;5130459;27;19915;-72
2022/09/17 13:09:09;;;;;;;;;;;19.70;61.30;;;;;;5136513;27;20415;-72
2022/09/17 13:11:47;;;;;;;;;;;19.60;60.20;;;;;;5136048;27;20002;-72
2022/09/17 13:14:16;;;;;;;;;;;19.60;60.50;;;;;;5135423;27;20389;-72
2022/09/17 13:16:41;;;;;;;;;;;19.50;60.60;;;;;;5136804;27;20293;-72
2022/09/17 13:19:22;;;;;;;;;;;19.40;60.10;;;;;;5136466;27;19910;-72
2022/09/17 13:21:54;;;;;;;;;;;19.30;60.10;;;;;;5135866;27;20408;-72
2022/09/17 13:24:23;;;;;;;;;;;19.20;60.50;;;;;;5136074;27;19904;-72
2022/09/17 13:26:51;;;;;;;;;;;19.10;60.90;;;;;;5136110;27;19907;-72
2022/09/17 13:29:36;;;;;;;;;;;19.00;61.00;;;;;;5103010;28;19904;-72
2022/09/17 13:32:01;;;;;;;;;;;19.00;61.00;;;;;;5134727;27;20393;-73
2022/09/17 13:34:29;;;;;;;;;;;19.00;62.10;;;;;;5116958;27;19908;-72
2022/09/17 13:36:56;;;;;;;;;;;19.00;62.10;;;;;;5106626;27;19919;-72
2022/09/17 13:39:40;;;;;;;;;;;19.00;61.80;;;;;;5105793;27;19907;-72
2022/09/17 13:42:06;;;;;;;;;;;19.00;61.60;;;;;;5126433;27;20304;-72
2022/09/17 13:44:34;;;;;;;;;;;19.00;60.90;;;;;;5127480;27;20384;-72
2022/09/17 13:47:14;;;;;;;;;;;19.00;60.60;;;;;;5130537;27;19915;-72
2022/09/17 13:49:48;;;;;;;;;;;19.00;61.20;;;;;;5128093;27;19908;-72
2022/09/17 13:52:28;;;;;;;;;;;19.10;61.90;;;;;;5121921;27;19904;-72
2022/09/17 13:54:55;;;;;;;;;;;19.20;62.30;;;;;;5121722;27;19914;-72
2022/09/17 13:57:20;;;;;;;;;;;19.20;61.60;;;;;;5131137;27;19982;-72
2022/09/17 13:59:53;;;;;;;;;;;19.30;61.30;;;;;;5116517;27;19950;-72
2022/09/17 14:02:30;;;;;;;;;;;19.20;60.30;;;;;;5127096;27;19930;-72
2022/09/17 14:05:16;;;;;;;;;;;19.00;60.00;;;;;;5119128;27;19903;-72
2022/09/17 14:07:46;;;;;;;;;;;19.00;60.00;;;;;;5096508;28;19910;-72
2022/09/17 14:10:14;;;;;;;;;;;18.80;60.50;;;;;;5114556;28;20312;-72
2022/09/17 14:12:40;;;;;;;;;;;18.70;60.80;;;;;;5125749;27;19973;-72
2022/09/17 14:15:24;;;;;;;;;;;18.60;61.20;;;;;;5135053;27;19907;-72
2022/09/17 14:17:51;;;;;;;;;;;18.60;61.30;;;;;;5101202;28;20287;-72
2022/09/17 14:20:22;;;;;;;;;;;18.50;61.20;;;;;;5114426;28;19903;-72
2022/09/17 14:22:58;;;;;;;;;;;18.50;61.50;;;;;;5126589;27;20002;-72
2022/09/17 14:25:46;;;;;;;;;;;18.50;61.70;;;;;;5116540;27;20377;-72
2022/09/17 14:28:20;;;;;;;;;;;18.60;62.50;;;;;;5115490;27;19907;-72
2022/09/17 14:30:46;;;;;;;;;;;18.60;62.30;;;;;;5134541;27;19915;-73
2022/09/17 14:33:17;;;;;;;;;;;18.60;62.30;;;;;;5134437;27;19915;-72